logo
Search for airport 
image banner adimage banner adimage banner ad
image banner ad

VT60 - Hulett Landing Strip

Located in West Pawlett, United States

ICAO - VT60, IATA -

Data provided by Airmate  

General information

Coordinates: N43°19'48" W73°14'33"
Elevation is 720 feet MSL.
Magnetic variation is -15° East
View others Airports in Vermont

Operational data

Special qualification required
Current time UTC:
Current local time:
Weather at : KGFL - Floyd Bennett Meml ( 30 km )
METAR: KGFL 131553Z AUTO 24007G20KT 10SM FEW047 BKN060 OVC080 08/01 A2946 RMK AO2 SLP979 T00830006
TAF: KGFL 131459Z 1315/1412 25010G19KT P6SM VCSH SCT035 BKN045 OVC090 FM131800 24011G19KT 6SM -SHRA BR BKN025 OVC040 FM132000 28012G22KT P6SM OVC025 FM140500 28008KT P6SM SCT030 FM140900 VRB03KT 6SM BR FEW030
View NOTAMs / SUP AIP / TFR affecting this airport [VIEW]
Communications frequencies: [VIEW]

Runways:

RWY identifierQFULength (ft)Width (ft)SurfaceLDA (ft)
02112575GRASS
20112575GRASS

Airport contact information

Address: West Pawlett United States

Satellite view of VT60